sensor_id;sensor_type;location;lat;lon;timestamp;temperature;humidity
76855;DHT22;66343;44.588;33.450;2023-03-23T00:02:15;10.35;78.66
76855;DHT22;66343;44.588;33.450;2023-03-23T00:04:47;10.30;78.66
76855;DHT22;66343;44.588;33.450;2023-03-23T00:07:19;10.26;78.60
76855;DHT22;66343;44.588;33.450;2023-03-23T00:09:50;10.27;78.39
76855;DHT22;66343;44.588;33.450;2023-03-23T00:12:22;10.29;78.21
76855;DHT22;66343;44.588;33.450;2023-03-23T00:15:05;10.33;78.11
76855;DHT22;66343;44.588;33.450;2023-03-23T00:17:43;10.36;77.66
76855;DHT22;66343;44.588;33.450;2023-03-23T00:20:11;10.42;77.49
76855;DHT22;66343;44.588;33.450;2023-03-23T00:22:40;10.49;77.12
76855;DHT22;66343;44.588;33.450;2023-03-23T00:25:11;10.50;77.00
76855;DHT22;66343;44.588;33.450;2023-03-23T00:27:40;10.55;76.95
76855;DHT22;66343;44.588;33.450;2023-03-23T00:30:15;10.60;76.92
76855;DHT22;66343;44.588;33.450;2023-03-23T00:32:43;10.62;76.79
76855;DHT22;66343;44.588;33.450;2023-03-23T00:35:14;10.63;76.75
76855;DHT22;66343;44.588;33.450;2023-03-23T00:37:42;10.69;76.64
76855;DHT22;66343;44.588;33.450;2023-03-23T00:40:15;10.71;76.55
76855;DHT22;66343;44.588;33.450;2023-03-23T00:42:47;10.74;76.53
76855;DHT22;66343;44.588;33.450;2023-03-23T00:45:18;10.71;76.60
76855;DHT22;66343;44.588;33.450;2023-03-23T00:47:48;10.69;76.57
76855;DHT22;66343;44.588;33.450;2023-03-23T00:50:25;10.69;76.56
76855;DHT22;66343;44.588;33.450;2023-03-23T00:52:58;10.65;76.63
76855;DHT22;66343;44.588;33.450;2023-03-23T00:55:26;10.60;76.88
76855;DHT22;66343;44.588;33.450;2023-03-23T00:57:54;10.60;76.91
76855;DHT22;66343;44.588;33.450;2023-03-23T01:00:24;10.59;76.98
76855;DHT22;66343;44.588;33.450;2023-03-23T01:02:55;10.59;77.08
76855;DHT22;66343;44.588;33.450;2023-03-23T01:05:28;10.62;77.08
76855;DHT22;66343;44.588;33.450;2023-03-23T01:07:59;10.66;77.01
76855;DHT22;66343;44.588;33.450;2023-03-23T01:10:26;10.71;76.85
76855;DHT22;66343;44.588;33.450;2023-03-23T01:12:54;10.72;76.95
76855;DHT22;66343;44.588;33.450;2023-03-23T01:15:24;10.72;77.02
76855;DHT22;66343;44.588;33.450;2023-03-23T01:17:52;10.73;76.99
76855;DHT22;66343;44.588;33.450;2023-03-23T01:20:23;10.77;76.85
76855;DHT22;66343;44.588;33.450;2023-03-23T01:22:52;10.79;76.86
76855;DHT22;66343;44.588;33.450;2023-03-23T01:25:35;10.75;76.75
76855;DHT22;66343;44.588;33.450;2023-03-23T01:28:06;10.78;76.64
76855;DHT22;66343;44.588;33.450;2023-03-23T01:30:38;10.75;76.67
76855;DHT22;66343;44.588;33.450;2023-03-23T01:33:07;10.73;76.93
76855;DHT22;66343;44.588;33.450;2023-03-23T01:35:39;10.72;76.92
76855;DHT22;66343;44.588;33.450;2023-03-23T01:38:09;10.75;76.92
76855;DHT22;66343;44.588;33.450;2023-03-23T01:40:42;10.79;76.70
76855;DHT22;66343;44.588;33.450;2023-03-23T01:43:17;10.82;76.53
76855;DHT22;66343;44.588;33.450;2023-03-23T01:45:50;10.83;76.45
76855;DHT22;66343;44.588;33.450;2023-03-23T01:48:30;10.84;76.25
76855;DHT22;66343;44.588;33.450;2023-03-23T01:51:14;10.84;76.12
76855;DHT22;66343;44.588;33.450;2023-03-23T01:53:50;10.85;76.02
76855;DHT22;66343;44.588;33.450;2023-03-23T01:56:25;10.86;75.92
76855;DHT22;66343;44.588;33.450;2023-03-23T01:59:02;10.84;76.05
76855;DHT22;66343;44.588;33.450;2023-03-23T02:01:29;10.84;75.94
76855;DHT22;66343;44.588;33.450;2023-03-23T02:04:00;10.85;75.92
76855;DHT22;66343;44.588;33.450;2023-03-23T02:06:33;10.85;75.83
76855;DHT22;66343;44.588;33.450;2023-03-23T02:09:14;10.89;75.72
76855;DHT22;66343;44.588;33.450;2023-03-23T02:11:49;10.86;75.75
76855;DHT22;66343;44.588;33.450;2023-03-23T02:14:20;10.85;75.54
76855;DHT22;66343;44.588;33.450;2023-03-23T02:17:07;10.82;75.67
76855;DHT22;66343;44.588;33.450;2023-03-23T02:20:09;10.85;75.55
76855;DHT22;66343;44.588;33.450;2023-03-23T02:25:46;10.89;75.27
76855;DHT22;66343;44.588;33.450;2023-03-23T02:34:00;10.95;75.15
76855;DHT22;66343;44.588;33.450;2023-03-23T02:36:34;10.95;75.15
76855;DHT22;66343;44.588;33.450;2023-03-23T02:39:21;10.95;75.15
76855;DHT22;66343;44.588;33.450;2023-03-23T02:41:55;10.96;75.15
76855;DHT22;66343;44.588;33.450;2023-03-23T02:44:28;10.96;75.14
76855;DHT22;66343;44.588;33.450;2023-03-23T02:46:59;10.95;75.18
76855;DHT22;66343;44.588;33.450;2023-03-23T02:49:32;10.92;75.25
76855;DHT22;66343;44.588;33.450;2023-03-23T02:52:10;10.90;75.38
76855;DHT22;66343;44.588;33.450;2023-03-23T02:54:44;10.93;75.40
76855;DHT22;66343;44.588;33.450;2023-03-23T02:57:16;10.95;75.30
76855;DHT22;66343;44.588;33.450;2023-03-23T02:59:46;10.97;75.27
76855;DHT22;66343;44.588;33.450;2023-03-23T03:02:28;10.97;75.39
76855;DHT22;66343;44.588;33.450;2023-03-23T03:11:08;11.05;74.98
76855;DHT22;66343;44.588;33.450;2023-03-23T03:22:04;10.97;75.38
76855;DHT22;66343;44.588;33.450;2023-03-23T03:24:40;10.90;75.65
76855;DHT22;66343;44.588;33.450;2023-03-23T03:27:18;10.88;75.79
76855;DHT22;66343;44.588;33.450;2023-03-23T03:30:03;10.86;75.81
76855;DHT22;66343;44.588;33.450;2023-03-23T03:32:44;10.83;75.86
76855;DHT22;66343;44.588;33.450;2023-03-23T03:35:23;10.81;75.83
76855;DHT22;66343;44.588;33.450;2023-03-23T03:37:51;10.78;76.07
76855;DHT22;66343;44.588;33.450;2023-03-23T03:40:27;10.79;76.15
76855;DHT22;66343;44.588;33.450;2023-03-23T03:42:55;10.79;76.09
76855;DHT22;66343;44.588;33.450;2023-03-23T03:45:27;10.77;76.24
76855;DHT22;66343;44.588;33.450;2023-03-23T03:47:58;10.73;76.66
76855;DHT22;66343;44.588;33.450;2023-03-23T03:50:32;10.74;76.86
76855;DHT22;66343;44.588;33.450;2023-03-23T03:53:00;10.68;77.27
76855;DHT22;66343;44.588;33.450;2023-03-23T03:55:32;10.69;77.39
76855;DHT22;66343;44.588;33.450;2023-03-23T03:58:09;10.73;77.18
76855;DHT22;66343;44.588;33.450;2023-03-23T04:00:59;10.75;77.02
76855;DHT22;66343;44.588;33.450;2023-03-23T04:03:33;10.78;76.78
76855;DHT22;66343;44.588;33.450;2023-03-23T04:06:06;10.74;76.87
76855;DHT22;66343;44.588;33.450;2023-03-23T04:08:37;10.77;76.87
76855;DHT22;66343;44.588;33.450;2023-03-23T04:11:11;10.80;76.63
76855;DHT22;66343;44.588;33.450;2023-03-23T04:13:45;10.74;76.79
76855;DHT22;66343;44.588;33.450;2023-03-23T04:16:24;10.75;76.79
76855;DHT22;66343;44.588;33.450;2023-03-23T04:18:59;10.75;76.76
76855;DHT22;66343;44.588;33.450;2023-03-23T04:21:28;10.74;76.66
76855;DHT22;66343;44.588;33.450;2023-03-23T04:24:00;10.75;76.68
76855;DHT22;66343;44.588;33.450;2023-03-23T04:26:35;10.74;76.65
76855;DHT22;66343;44.588;33.450;2023-03-23T04:29:21;10.75;76.48
76855;DHT22;66343;44.588;33.450;2023-03-23T04:32:29;10.79;76.23
76855;DHT22;66343;44.588;33.450;2023-03-23T04:35:00;10.77;76.08
76855;DHT22;66343;44.588;33.450;2023-03-23T04:37:35;10.78;75.95
76855;DHT22;66343;44.588;33.450;2023-03-23T04:40:10;10.77;75.57
76855;DHT22;66343;44.588;33.450;2023-03-23T04:42:51;10.71;75.76
76855;DHT22;66343;44.588;33.450;2023-03-23T04:45:28;10.72;75.31
76855;DHT22;66343;44.588;33.450;2023-03-23T04:48:04;10.69;75.09
76855;DHT22;66343;44.588;33.450;2023-03-23T04:50:54;10.70;74.96
76855;DHT22;66343;44.588;33.450;2023-03-23T04:53:29;10.69;75.47
76855;DHT22;66343;44.588;33.450;2023-03-23T04:56:01;10.63;76.05
76855;DHT22;66343;44.588;33.450;2023-03-23T04:58:37;10.62;76.38
76855;DHT22;66343;44.588;33.450;2023-03-23T05:01:21;10.62;76.44
76855;DHT22;66343;44.588;33.450;2023-03-23T05:04:15;10.66;76.21
76855;DHT22;66343;44.588;33.450;2023-03-23T05:06:56;10.73;75.76
76855;DHT22;66343;44.588;33.450;2023-03-23T05:09:28;10.72;75.55
76855;DHT22;66343;44.588;33.450;2023-03-23T05:12:03;10.77;75.31
76855;DHT22;66343;44.588;33.450;2023-03-23T05:14:39;10.77;75.31
76855;DHT22;66343;44.588;33.450;2023-03-23T05:17:10;10.80;75.32
76855;DHT22;66343;44.588;33.450;2023-03-23T05:19:42;10.79;75.38
76855;DHT22;66343;44.588;33.450;2023-03-23T05:22:31;10.81;75.17
76855;DHT22;66343;44.588;33.450;2023-03-23T05:25:07;10.84;75.04
76855;DHT22;66343;44.588;33.450;2023-03-23T05:27:47;10.85;75.02
76855;DHT22;66343;44.588;33.450;2023-03-23T05:30:37;10.83;75.01
76855;DHT22;66343;44.588;33.450;2023-03-23T05:33:07;10.86;75.05
76855;DHT22;66343;44.588;33.450;2023-03-23T05:35:51;10.90;74.84
76855;DHT22;66343;44.588;33.450;2023-03-23T05:38:27;10.90;74.67
76855;DHT22;66343;44.588;33.450;2023-03-23T05:41:01;10.88;74.57
76855;DHT22;66343;44.588;33.450;2023-03-23T05:43:38;10.94;74.47
76855;DHT22;66343;44.588;33.450;2023-03-23T05:46:25;10.96;74.50
76855;DHT22;66343;44.588;33.450;2023-03-23T05:48:59;10.94;74.64
76855;DHT22;66343;44.588;33.450;2023-03-23T05:51:36;10.95;74.64
76855;DHT22;66343;44.588;33.450;2023-03-23T05:54:07;10.97;74.35
76855;DHT22;66343;44.588;33.450;2023-03-23T05:56:43;10.90;74.59
76855;DHT22;66343;44.588;33.450;2023-03-23T05:59:43;10.88;74.72
76855;DHT22;66343;44.588;33.450;2023-03-23T06:02:18;10.89;74.54
76855;DHT22;66343;44.588;33.450;2023-03-23T06:04:49;10.96;74.65
76855;DHT22;66343;44.588;33.450;2023-03-23T06:07:29;11.03;74.41
76855;DHT22;66343;44.588;33.450;2023-03-23T06:10:08;11.16;73.67
76855;DHT22;66343;44.588;33.450;2023-03-23T06:12:39;11.23;72.93
76855;DHT22;66343;44.588;33.450;2023-03-23T06:15:13;11.32;72.76
76855;DHT22;66343;44.588;33.450;2023-03-23T06:18:10;11.36;72.41
76855;DHT22;66343;44.588;33.450;2023-03-23T06:21:03;11.43;72.55
76855;DHT22;66343;44.588;33.450;2023-03-23T06:23:48;11.45;72.32
76855;DHT22;66343;44.588;33.450;2023-03-23T06:26:34;11.51;72.14
76855;DHT22;66343;44.588;33.450;2023-03-23T06:29:07;11.62;71.76
76855;DHT22;66343;44.588;33.450;2023-03-23T06:31:49;11.69;71.28
76855;DHT22;66343;44.588;33.450;2023-03-23T06:34:22;11.56;71.98
76855;DHT22;66343;44.588;33.450;2023-03-23T06:36:56;11.49;72.51
76855;DHT22;66343;44.588;33.450;2023-03-23T06:39:59;11.55;72.35
76855;DHT22;66343;44.588;33.450;2023-03-23T06:42:36;11.49;72.76
76855;DHT22;66343;44.588;33.450;2023-03-23T06:45:27;11.45;72.87
76855;DHT22;66343;44.588;33.450;2023-03-23T06:48:14;11.46;72.95
76855;DHT22;66343;44.588;33.450;2023-03-23T06:50:49;11.53;73.03
76855;DHT22;66343;44.588;33.450;2023-03-23T06:53:18;11.61;72.97
76855;DHT22;66343;44.588;33.450;2023-03-23T06:55:53;11.68;72.18
76855;DHT22;66343;44.588;33.450;2023-03-23T06:58:21;11.73;71.70
76855;DHT22;66343;44.588;33.450;2023-03-23T07:00:55;11.73;71.55
76855;DHT22;66343;44.588;33.450;2023-03-23T07:03:35;11.74;71.44
76855;DHT22;66343;44.588;33.450;2023-03-23T07:06:04;11.72;71.42
76855;DHT22;66343;44.588;33.450;2023-03-23T07:08:38;11.77;71.97
76855;DHT22;66343;44.588;33.450;2023-03-23T07:11:19;11.76;72.15
76855;DHT22;66343;44.588;33.450;2023-03-23T07:13:47;11.68;72.61
76855;DHT22;66343;44.588;33.450;2023-03-23T07:16:18;11.71;72.82
76855;DHT22;66343;44.588;33.450;2023-03-23T07:18:49;11.67;72.57
76855;DHT22;66343;44.588;33.450;2023-03-23T07:21:17;11.59;72.61
76855;DHT22;66343;44.588;33.450;2023-03-23T07:23:48;11.53;73.11
76855;DHT22;66343;44.588;33.450;2023-03-23T07:26:27;11.60;73.09
76855;DHT22;66343;44.588;33.450;2023-03-23T07:28:59;11.59;73.43
76855;DHT22;66343;44.588;33.450;2023-03-23T07:31:33;11.66;73.44
76855;DHT22;66343;44.588;33.450;2023-03-23T07:34:09;11.76;72.94
76855;DHT22;66343;44.588;33.450;2023-03-23T07:36:52;11.86;72.55
76855;DHT22;66343;44.588;33.450;2023-03-23T07:39:26;11.91;72.60
76855;DHT22;66343;44.588;33.450;2023-03-23T07:41:57;11.91;72.32
76855;DHT22;66343;44.588;33.450;2023-03-23T07:44:45;12.01;72.64
76855;DHT22;66343;44.588;33.450;2023-03-23T07:47:14;12.02;71.96
76855;DHT22;66343;44.588;33.450;2023-03-23T07:49:50;11.96;72.16
76855;DHT22;66343;44.588;33.450;2023-03-23T07:52:28;11.96;72.19
76855;DHT22;66343;44.588;33.450;2023-03-23T07:54:59;12.11;72.08
76855;DHT22;66343;44.588;33.450;2023-03-23T07:57:52;12.11;71.63
76855;DHT22;66343;44.588;33.450;2023-03-23T08:00:23;12.13;71.45
76855;DHT22;66343;44.588;33.450;2023-03-23T08:02:57;12.22;71.35
76855;DHT22;66343;44.588;33.450;2023-03-23T08:05:47;12.32;70.89
76855;DHT22;66343;44.588;33.450;2023-03-23T08:08:34;12.34;70.93
76855;DHT22;66343;44.588;33.450;2023-03-23T08:11:21;12.36;70.70
76855;DHT22;66343;44.588;33.450;2023-03-23T08:14:14;12.33;70.87
76855;DHT22;66343;44.588;33.450;2023-03-23T08:17:21;12.32;70.75
76855;DHT22;66343;44.588;33.450;2023-03-23T08:20:08;12.31;70.58
76855;DHT22;66343;44.588;33.450;2023-03-23T08:23:06;12.29;70.61
76855;DHT22;66343;44.588;33.450;2023-03-23T08:25:41;12.15;71.08
76855;DHT22;66343;44.588;33.450;2023-03-23T08:28:26;12.23;70.85
76855;DHT22;66343;44.588;33.450;2023-03-23T08:31:14;12.29;71.29
76855;DHT22;66343;44.588;33.450;2023-03-23T08:34:22;12.40;71.18
76855;DHT22;66343;44.588;33.450;2023-03-23T08:37:10;12.43;71.20
76855;DHT22;66343;44.588;33.450;2023-03-23T08:39:41;12.47;70.95
76855;DHT22;66343;44.588;33.450;2023-03-23T08:42:45;12.50;71.03
76855;DHT22;66343;44.588;33.450;2023-03-23T08:45:44;12.50;71.53
76855;DHT22;66343;44.588;33.450;2023-03-23T08:48:32;12.50;70.90
76855;DHT22;66343;44.588;33.450;2023-03-23T08:51:45;12.47;71.10
76855;DHT22;66343;44.588;33.450;2023-03-23T08:54:28;12.49;70.90
76855;DHT22;66343;44.588;33.450;2023-03-23T08:57:36;12.56;70.85
76855;DHT22;66343;44.588;33.450;2023-03-23T09:00:25;12.58;70.74
76855;DHT22;66343;44.588;33.450;2023-03-23T09:03:08;12.45;70.63
76855;DHT22;66343;44.588;33.450;2023-03-23T09:06:01;12.52;70.97
76855;DHT22;66343;44.588;33.450;2023-03-23T09:08:53;12.57;70.87
76855;DHT22;66343;44.588;33.450;2023-03-23T09:11:24;12.55;70.80
76855;DHT22;66343;44.588;33.450;2023-03-23T09:13:52;12.61;70.23
76855;DHT22;66343;44.588;33.450;2023-03-23T09:16:20;12.60;70.23
76855;DHT22;66343;44.588;33.450;2023-03-23T09:18:52;12.62;70.32
76855;DHT22;66343;44.588;33.450;2023-03-23T09:21:21;12.62;70.03
76855;DHT22;66343;44.588;33.450;2023-03-23T09:23:58;12.67;69.61
76855;DHT22;66343;44.588;33.450;2023-03-23T09:26:26;12.78;69.18
76855;DHT22;66343;44.588;33.450;2023-03-23T09:29:00;12.79;69.33
76855;DHT22;66343;44.588;33.450;2023-03-23T09:31:32;12.90;69.01
76855;DHT22;66343;44.588;33.450;2023-03-23T09:34:05;12.95;68.87
76855;DHT22;66343;44.588;33.450;2023-03-23T09:36:40;12.88;68.72
76855;DHT22;66343;44.588;33.450;2023-03-23T09:39:07;12.92;69.02
76855;DHT22;66343;44.588;33.450;2023-03-23T09:44:55;12.96;68.26
76855;DHT22;66343;44.588;33.450;2023-03-23T09:47:56;12.99;68.31
76855;DHT22;66343;44.588;33.450;2023-03-23T09:50:32;13.08;67.72
76855;DHT22;66343;44.588;33.450;2023-03-23T09:53:22;13.22;67.60
76855;DHT22;66343;44.588;33.450;2023-03-23T09:55:55;13.27;67.21
76855;DHT22;66343;44.588;33.450;2023-03-23T09:58:46;13.30;67.36
76855;DHT22;66343;44.588;33.450;2023-03-23T10:01:23;13.32;67.15
76855;DHT22;66343;44.588;33.450;2023-03-23T10:04:34;13.44;66.43
76855;DHT22;66343;44.588;33.450;2023-03-23T10:07:26;13.61;66.05
76855;DHT22;66343;44.588;33.450;2023-03-23T10:10:00;13.64;65.93
76855;DHT22;66343;44.588;33.450;2023-03-23T10:12:44;13.56;66.40
76855;DHT22;66343;44.588;33.450;2023-03-23T10:15:34;13.41;66.94
76855;DHT22;66343;44.588;33.450;2023-03-23T10:18:11;13.40;66.98
76855;DHT22;66343;44.588;33.450;2023-03-23T10:20:59;13.51;66.82
76855;DHT22;66343;44.588;33.450;2023-03-23T10:26:21;13.70;66.23
76855;DHT22;66343;44.588;33.450;2023-03-23T10:29:24;13.73;66.10
76855;DHT22;66343;44.588;33.450;2023-03-23T10:32:11;13.77;65.69
76855;DHT22;66343;44.588;33.450;2023-03-23T10:35:03;13.88;65.74
76855;DHT22;66343;44.588;33.450;2023-03-23T10:37:34;13.98;65.53
76855;DHT22;66343;44.588;33.450;2023-03-23T10:40:15;13.96;65.72
76855;DHT22;66343;44.588;33.450;2023-03-23T10:42:45;13.96;65.48
76855;DHT22;66343;44.588;33.450;2023-03-23T10:45:20;14.05;65.69
76855;DHT22;66343;44.588;33.450;2023-03-23T10:48:22;14.13;64.80
76855;DHT22;66343;44.588;33.450;2023-03-23T10:50:55;14.06;65.29
76855;DHT22;66343;44.588;33.450;2023-03-23T10:55:57;14.06;65.60
76855;DHT22;66343;44.588;33.450;2023-03-23T10:58:31;14.13;65.21
76855;DHT22;66343;44.588;33.450;2023-03-23T11:01:01;14.20;64.42
76855;DHT22;66343;44.588;33.450;2023-03-23T11:03:38;14.17;64.74
76855;DHT22;66343;44.588;33.450;2023-03-23T11:06:19;14.19;64.54
76855;DHT22;66343;44.588;33.450;2023-03-23T11:08:54;14.17;64.83
76855;DHT22;66343;44.588;33.450;2023-03-23T11:11:32;14.26;64.42
76855;DHT22;66343;44.588;33.450;2023-03-23T11:14:27;14.44;63.85
76855;DHT22;66343;44.588;33.450;2023-03-23T11:16:59;14.41;63.73
76855;DHT22;66343;44.588;33.450;2023-03-23T11:19:50;14.45;63.18
76855;DHT22;66343;44.588;33.450;2023-03-23T11:22:29;14.29;64.14
76855;DHT22;66343;44.588;33.450;2023-03-23T11:25:08;14.24;64.11
76855;DHT22;66343;44.588;33.450;2023-03-23T11:27:38;14.25;64.35
76855;DHT22;66343;44.588;33.450;2023-03-23T11:30:32;14.27;63.79
76855;DHT22;66343;44.588;33.450;2023-03-23T11:33:02;14.21;63.92
76855;DHT22;66343;44.588;33.450;2023-03-23T11:35:32;14.18;63.74
76855;DHT22;66343;44.588;33.450;2023-03-23T11:38:03;14.21;64.06
76855;DHT22;66343;44.588;33.450;2023-03-23T11:40:46;14.10;64.96
76855;DHT22;66343;44.588;33.450;2023-03-23T11:43:19;14.29;63.88
76855;DHT22;66343;44.588;33.450;2023-03-23T11:53:23;14.60;63.34
76855;DHT22;66343;44.588;33.450;2023-03-23T11:56:24;14.49;63.56
76855;DHT22;66343;44.588;33.450;2023-03-23T11:59:01;14.37;64.23
76855;DHT22;66343;44.588;33.450;2023-03-23T12:01:59;14.37;64.07
76855;DHT22;66343;44.588;33.450;2023-03-23T12:04:57;14.29;64.75
76855;DHT22;66343;44.588;33.450;2023-03-23T12:13:26;14.13;65.19
76855;DHT22;66343;44.588;33.450;2023-03-23T12:21:51;13.95;65.98
76855;DHT22;66343;44.588;33.450;2023-03-23T12:25:14;13.94;65.64
76855;DHT22;66343;44.588;33.450;2023-03-23T12:27:35;13.77;66.86
76855;DHT22;66343;44.588;33.450;2023-03-23T12:30:41;13.74;66.89
76855;DHT22;66343;44.588;33.450;2023-03-23T12:36:40;13.79;66.98
76855;DHT22;66343;44.588;33.450;2023-03-23T12:44:43;13.67;67.54
76855;DHT22;66343;44.588;33.450;2023-03-23T12:50:15;13.51;68.15
76855;DHT22;66343;44.588;33.450;2023-03-23T12:52:56;13.55;68.31
76855;DHT22;66343;44.588;33.450;2023-03-23T12:55:46;13.62;68.33
76855;DHT22;66343;44.588;33.450;2023-03-23T12:58:25;13.56;68.75
76855;DHT22;66343;44.588;33.450;2023-03-23T13:01:06;13.50;69.08
76855;DHT22;66343;44.588;33.450;2023-03-23T13:06:38;13.44;68.88
76855;DHT22;66343;44.588;33.450;2023-03-23T13:11:56;13.37;68.62
76855;DHT22;66343;44.588;33.450;2023-03-23T13:20:32;13.29;68.64
76855;DHT22;66343;44.588;33.450;2023-03-23T13:26:12;13.31;68.23
76855;DHT22;66343;44.588;33.450;2023-03-23T13:29:06;13.31;68.40
76855;DHT22;66343;44.588;33.450;2023-03-23T13:31:39;13.31;68.33
76855;DHT22;66343;44.588;33.450;2023-03-23T13:34:28;13.39;68.36
76855;DHT22;66343;44.588;33.450;2023-03-23T13:37:06;13.38;68.35
76855;DHT22;66343;44.588;33.450;2023-03-23T13:39:57;13.29;68.51
76855;DHT22;66343;44.588;33.450;2023-03-23T13:42:29;13.32;68.76
76855;DHT22;66343;44.588;33.450;2023-03-23T13:48:28;13.36;68.21
76855;DHT22;66343;44.588;33.450;2023-03-23T13:50:56;13.32;68.50
76855;DHT22;66343;44.588;33.450;2023-03-23T13:53:30;13.34;68.60
76855;DHT22;66343;44.588;33.450;2023-03-23T13:56:13;13.38;68.35
76855;DHT22;66343;44.588;33.450;2023-03-23T13:58:51;13.35;68.58
76855;DHT22;66343;44.588;33.450;2023-03-23T14:01:39;13.39;68.83
76855;DHT22;66343;44.588;33.450;2023-03-23T14:04:16;13.30;69.55
76855;DHT22;66343;44.588;33.450;2023-03-23T14:06:49;13.35;69.81
76855;DHT22;66343;44.588;33.450;2023-03-23T14:09:33;13.37;69.85
76855;DHT22;66343;44.588;33.450;2023-03-23T14:12:05;13.41;70.01
76855;DHT22;66343;44.588;33.450;2023-03-23T14:14:44;13.34;70.18
76855;DHT22;66343;44.588;33.450;2023-03-23T14:17:18;13.26;70.22
76855;DHT22;66343;44.588;33.450;2023-03-23T14:19:48;13.31;70.34
76855;DHT22;66343;44.588;33.450;2023-03-23T14:22:33;13.30;70.29
76855;DHT22;66343;44.588;33.450;2023-03-23T14:25:02;13.27;70.02
76855;DHT22;66343;44.588;33.450;2023-03-23T14:27:36;13.19;70.36
76855;DHT22;66343;44.588;33.450;2023-03-23T14:30:14;13.07;70.71
76855;DHT22;66343;44.588;33.450;2023-03-23T14:32:42;13.04;70.72
76855;DHT22;66343;44.588;33.450;2023-03-23T14:35:31;13.03;70.63
76855;DHT22;66343;44.588;33.450;2023-03-23T14:38:02;13.01;70.55
76855;DHT22;66343;44.588;33.450;2023-03-23T14:40:33;12.97;70.80
76855;DHT22;66343;44.588;33.450;2023-03-23T14:43:02;13.00;70.85
76855;DHT22;66343;44.588;33.450;2023-03-23T14:45:32;12.92;70.70
76855;DHT22;66343;44.588;33.450;2023-03-23T14:48:09;12.90;70.86
76855;DHT22;66343;44.588;33.450;2023-03-23T14:51:03;12.82;70.71
76855;DHT22;66343;44.588;33.450;2023-03-23T14:53:39;12.79;70.97
76855;DHT22;66343;44.588;33.450;2023-03-23T14:56:20;12.82;70.73
76855;DHT22;66343;44.588;33.450;2023-03-23T14:58:52;12.79;71.01
76855;DHT22;66343;44.588;33.450;2023-03-23T15:01:29;12.77;71.17
76855;DHT22;66343;44.588;33.450;2023-03-23T15:04:10;12.76;71.17
76855;DHT22;66343;44.588;33.450;2023-03-23T15:06:43;12.82;71.09
76855;DHT22;66343;44.588;33.450;2023-03-23T15:09:20;12.87;71.04
76855;DHT22;66343;44.588;33.450;2023-03-23T15:11:59;12.88;70.80
76855;DHT22;66343;44.588;33.450;2023-03-23T15:14:32;12.81;71.05
76855;DHT22;66343;44.588;33.450;2023-03-23T15:17:00;12.80;71.23
76855;DHT22;66343;44.588;33.450;2023-03-23T15:19:35;12.84;70.98
76855;DHT22;66343;44.588;33.450;2023-03-23T15:22:25;12.82;70.81
76855;DHT22;66343;44.588;33.450;2023-03-23T15:25:10;12.78;70.87
76855;DHT22;66343;44.588;33.450;2023-03-23T15:27:43;12.87;70.39
76855;DHT22;66343;44.588;33.450;2023-03-23T15:30:45;12.84;70.27
76855;DHT22;66343;44.588;33.450;2023-03-23T15:33:18;12.89;69.94
76855;DHT22;66343;44.588;33.450;2023-03-23T15:35:52;12.90;69.74
76855;DHT22;66343;44.588;33.450;2023-03-23T15:38:29;12.94;69.42
76855;DHT22;66343;44.588;33.450;2023-03-23T15:41:02;12.93;69.45
76855;DHT22;66343;44.588;33.450;2023-03-23T15:43:36;12.89;69.64
76855;DHT22;66343;44.588;33.450;2023-03-23T15:46:24;12.94;69.56
76855;DHT22;66343;44.588;33.450;2023-03-23T15:49:10;12.97;69.42
76855;DHT22;66343;44.588;33.450;2023-03-23T15:51:42;13.00;69.45
76855;DHT22;66343;44.588;33.450;2023-03-23T15:54:14;13.04;69.23
76855;DHT22;66343;44.588;33.450;2023-03-23T15:56:51;13.05;69.39
76855;DHT22;66343;44.588;33.450;2023-03-23T15:59:26;12.99;69.63
76855;DHT22;66343;44.588;33.450;2023-03-23T16:01:57;12.95;69.69
76855;DHT22;66343;44.588;33.450;2023-03-23T16:04:26;12.99;69.64
76855;DHT22;66343;44.588;33.450;2023-03-23T16:06:56;12.91;70.01
76855;DHT22;66343;44.588;33.450;2023-03-23T16:09:27;12.92;69.73
76855;DHT22;66343;44.588;33.450;2023-03-23T16:11:56;12.92;69.90
76855;DHT22;66343;44.588;33.450;2023-03-23T16:14:34;12.92;69.93
76855;DHT22;66343;44.588;33.450;2023-03-23T16:17:11;12.89;70.16
76855;DHT22;66343;44.588;33.450;2023-03-23T16:19:47;12.84;70.53
76855;DHT22;66343;44.588;33.450;2023-03-23T16:22:16;12.78;70.90
76855;DHT22;66343;44.588;33.450;2023-03-23T16:24:46;12.81;70.51
76855;DHT22;66343;44.588;33.450;2023-03-23T16:27:18;12.85;70.48
76855;DHT22;66343;44.588;33.450;2023-03-23T16:29:50;12.82;70.70
76855;DHT22;66343;44.588;33.450;2023-03-23T16:32:31;12.85;70.61
76855;DHT22;66343;44.588;33.450;2023-03-23T16:35:08;12.88;70.62
76855;DHT22;66343;44.588;33.450;2023-03-23T16:37:47;12.85;70.82
76855;DHT22;66343;44.588;33.450;2023-03-23T16:40:41;12.81;70.96
76855;DHT22;66343;44.588;33.450;2023-03-23T16:43:17;12.86;70.87
76855;DHT22;66343;44.588;33.450;2023-03-23T16:45:57;12.88;70.68
76855;DHT22;66343;44.588;33.450;2023-03-23T16:48:30;12.84;70.93
76855;DHT22;66343;44.588;33.450;2023-03-23T16:51:20;12.79;70.93
76855;DHT22;66343;44.588;33.450;2023-03-23T16:53:58;12.81;71.04
76855;DHT22;66343;44.588;33.450;2023-03-23T16:56:32;12.82;70.90
76855;DHT22;66343;44.588;33.450;2023-03-23T16:59:02;12.74;71.32
76855;DHT22;66343;44.588;33.450;2023-03-23T17:01:33;12.80;70.94
76855;DHT22;66343;44.588;33.450;2023-03-23T17:04:07;12.81;70.79
76855;DHT22;66343;44.588;33.450;2023-03-23T17:06:40;12.81;70.90
76855;DHT22;66343;44.588;33.450;2023-03-23T17:09:12;12.84;70.74
76855;DHT22;66343;44.588;33.450;2023-03-23T17:11:44;12.78;71.03
76855;DHT22;66343;44.588;33.450;2023-03-23T17:14:13;12.75;71.35
76855;DHT22;66343;44.588;33.450;2023-03-23T17:16:49;12.73;71.43
76855;DHT22;66343;44.588;33.450;2023-03-23T17:19:18;12.70;71.72
76855;DHT22;66343;44.588;33.450;2023-03-23T17:22:08;12.76;71.51
76855;DHT22;66343;44.588;33.450;2023-03-23T17:24:37;12.77;71.55
76855;DHT22;66343;44.588;33.450;2023-03-23T17:27:12;12.78;71.56
76855;DHT22;66343;44.588;33.450;2023-03-23T17:29:43;12.74;71.84
76855;DHT22;66343;44.588;33.450;2023-03-23T17:32:16;12.69;71.90
76855;DHT22;66343;44.588;33.450;2023-03-23T17:34:47;12.67;72.13
76855;DHT22;66343;44.588;33.450;2023-03-23T17:37:22;12.63;72.43
76855;DHT22;66343;44.588;33.450;2023-03-23T17:39:57;12.49;72.95
76855;DHT22;66343;44.588;33.450;2023-03-23T17:42:26;12.40;73.38